sensor_id;sensor_type;location;lat;lon;timestamp;temperature;humidity
3628;DHT22;1830;49.000;12.074;2023-12-04T00:02:03;-6.60;99.90
3628;DHT22;1830;49.000;12.074;2023-12-04T00:04:30;-6.70;99.90
3628;DHT22;1830;49.000;12.074;2023-12-04T00:06:56;-6.80;99.90
3628;DHT22;1830;49.000;12.074;2023-12-04T00:09:24;-6.80;99.90
3628;DHT22;1830;49.000;12.074;2023-12-04T00:11:52;-6.80;99.90
3628;DHT22;1830;49.000;12.074;2023-12-04T00:14:19;-6.90;99.90
3628;DHT22;1830;49.000;12.074;2023-12-04T00:16:46;-6.90;99.90
3628;DHT22;1830;49.000;12.074;2023-12-04T00:19:12;-6.90;99.90
3628;DHT22;1830;49.000;12.074;2023-12-04T00:21:39;-6.90;99.90
3628;DHT22;1830;49.000;12.074;2023-12-04T00:24:06;-6.80;99.90
3628;DHT22;1830;49.000;12.074;2023-12-04T00:26:34;-6.90;99.90
3628;DHT22;1830;49.000;12.074;2023-12-04T00:29:01;-6.80;99.90
3628;DHT22;1830;49.000;12.074;2023-12-04T00:31:28;-6.90;99.90
3628;DHT22;1830;49.000;12.074;2023-12-04T00:33:54;-7.00;99.90
3628;DHT22;1830;49.000;12.074;2023-12-04T00:36:21;-6.90;99.90
3628;DHT22;1830;49.000;12.074;2023-12-04T00:38:48;-7.00;99.90
3628;DHT22;1830;49.000;12.074;2023-12-04T00:41:15;-7.10;99.90
3628;DHT22;1830;49.000;12.074;2023-12-04T00:43:43;-7.10;99.90
3628;DHT22;1830;49.000;12.074;2023-12-04T00:46:10;-7.20;99.90
3628;DHT22;1830;49.000;12.074;2023-12-04T00:48:36;-7.20;99.90
3628;DHT22;1830;49.000;12.074;2023-12-04T00:51:04;-7.20;99.90
3628;DHT22;1830;49.000;12.074;2023-12-04T00:53:31;-7.30;99.90
3628;DHT22;1830;49.000;12.074;2023-12-04T00:55:57;-7.20;99.90
3628;DHT22;1830;49.000;12.074;2023-12-04T00:58:24;-7.10;99.90
3628;DHT22;1830;49.000;12.074;2023-12-04T01:00:52;-7.00;99.90
3628;DHT22;1830;49.000;12.074;2023-12-04T01:03:19;-7.20;99.90
3628;DHT22;1830;49.000;12.074;2023-12-04T01:05:45;-7.20;99.90
3628;DHT22;1830;49.000;12.074;2023-12-04T01:08:12;-7.20;99.90
3628;DHT22;1830;49.000;12.074;2023-12-04T01:10:39;-7.30;99.90
3628;DHT22;1830;49.000;12.074;2023-12-04T01:13:06;-7.30;99.90
3628;DHT22;1830;49.000;12.074;2023-12-04T01:15:33;-7.20;99.90
3628;DHT22;1830;49.000;12.074;2023-12-04T01:18:01;-7.30;99.90
3628;DHT22;1830;49.000;12.074;2023-12-04T01:20:28;-7.20;99.90
3628;DHT22;1830;49.000;12.074;2023-12-04T01:22:55;-7.40;99.90
3628;DHT22;1830;49.000;12.074;2023-12-04T01:25:21;-7.40;99.90
3628;DHT22;1830;49.000;12.074;2023-12-04T01:27:48;-7.40;99.90
3628;DHT22;1830;49.000;12.074;2023-12-04T01:30:15;-7.60;99.90
3628;DHT22;1830;49.000;12.074;2023-12-04T01:32:42;-7.60;99.90
3628;DHT22;1830;49.000;12.074;2023-12-04T01:35:10;-7.60;99.90
3628;DHT22;1830;49.000;12.074;2023-12-04T01:37:37;-7.50;99.90
3628;DHT22;1830;49.000;12.074;2023-12-04T01:40:05;-7.60;99.90
3628;DHT22;1830;49.000;12.074;2023-12-04T01:42:32;-7.50;99.90
3628;DHT22;1830;49.000;12.074;2023-12-04T01:44:59;-7.60;99.90
3628;DHT22;1830;49.000;12.074;2023-12-04T01:47:26;-7.60;99.90
3628;DHT22;1830;49.000;12.074;2023-12-04T01:49:52;-7.60;99.90
3628;DHT22;1830;49.000;12.074;2023-12-04T01:52:21;-7.50;99.90
3628;DHT22;1830;49.000;12.074;2023-12-04T01:54:47;-7.50;99.90
3628;DHT22;1830;49.000;12.074;2023-12-04T01:57:14;-7.50;99.90
3628;DHT22;1830;49.000;12.074;2023-12-04T01:59:41;-7.50;99.90
3628;DHT22;1830;49.000;12.074;2023-12-04T02:02:08;-7.60;99.90
3628;DHT22;1830;49.000;12.074;2023-12-04T02:04:36;-7.60;99.90
3628;DHT22;1830;49.000;12.074;2023-12-04T02:07:04;-7.60;99.90
3628;DHT22;1830;49.000;12.074;2023-12-04T02:09:32;-7.60;99.90
3628;DHT22;1830;49.000;12.074;2023-12-04T02:11:59;-7.50;99.90
3628;DHT22;1830;49.000;12.074;2023-12-04T02:14:26;-7.50;99.90
3628;DHT22;1830;49.000;12.074;2023-12-04T02:16:54;-7.50;99.90
3628;DHT22;1830;49.000;12.074;2023-12-04T02:19:22;-7.40;99.90
3628;DHT22;1830;49.000;12.074;2023-12-04T02:21:49;-7.50;99.90
3628;DHT22;1830;49.000;12.074;2023-12-04T02:24:18;-7.50;99.90
3628;DHT22;1830;49.000;12.074;2023-12-04T02:26:47;-7.50;99.90
3628;DHT22;1830;49.000;12.074;2023-12-04T02:29:23;-7.50;99.90
3628;DHT22;1830;49.000;12.074;2023-12-04T02:31:51;-7.40;99.90
3628;DHT22;1830;49.000;12.074;2023-12-04T02:34:20;-7.30;99.90
3628;DHT22;1830;49.000;12.074;2023-12-04T02:36:48;-7.20;99.90
3628;DHT22;1830;49.000;12.074;2023-12-04T02:39:15;-7.20;99.90
3628;DHT22;1830;49.000;12.074;2023-12-04T02:41:44;-7.30;99.90
3628;DHT22;1830;49.000;12.074;2023-12-04T02:44:10;-7.20;99.90
3628;DHT22;1830;49.000;12.074;2023-12-04T02:46:37;-7.20;99.90
3628;DHT22;1830;49.000;12.074;2023-12-04T02:49:04;-7.20;99.90
3628;DHT22;1830;49.000;12.074;2023-12-04T02:51:31;-7.10;99.90
3628;DHT22;1830;49.000;12.074;2023-12-04T02:53:58;-7.20;99.90
3628;DHT22;1830;49.000;12.074;2023-12-04T02:56:24;-7.10;99.90
3628;DHT22;1830;49.000;12.074;2023-12-04T02:58:52;-7.00;99.90
3628;DHT22;1830;49.000;12.074;2023-12-04T03:01:19;-7.00;99.90
3628;DHT22;1830;49.000;12.074;2023-12-04T03:03:46;-6.90;99.90
3628;DHT22;1830;49.000;12.074;2023-12-04T03:06:13;-7.00;99.90
3628;DHT22;1830;49.000;12.074;2023-12-04T03:08:42;-7.00;99.90
3628;DHT22;1830;49.000;12.074;2023-12-04T03:11:08;-7.10;99.90
3628;DHT22;1830;49.000;12.074;2023-12-04T03:13:35;-7.10;99.90
3628;DHT22;1830;49.000;12.074;2023-12-04T03:16:03;-7.20;99.90
3628;DHT22;1830;49.000;12.074;2023-12-04T03:18:30;-7.20;99.90
3628;DHT22;1830;49.000;12.074;2023-12-04T03:20:56;-7.30;99.90
3628;DHT22;1830;49.000;12.074;2023-12-04T03:23:23;-7.30;99.90
3628;DHT22;1830;49.000;12.074;2023-12-04T03:25:50;-7.30;99.90
3628;DHT22;1830;49.000;12.074;2023-12-04T03:28:17;-7.40;99.90
3628;DHT22;1830;49.000;12.074;2023-12-04T03:30:44;-7.40;99.90
3628;DHT22;1830;49.000;12.074;2023-12-04T03:33:12;-7.30;99.90
3628;DHT22;1830;49.000;12.074;2023-12-04T03:35:39;-7.30;99.90
3628;DHT22;1830;49.000;12.074;2023-12-04T03:38:06;-7.30;99.90
3628;DHT22;1830;49.000;12.074;2023-12-04T03:40:32;-7.30;99.90
3628;DHT22;1830;49.000;12.074;2023-12-04T03:42:59;-7.30;99.90
3628;DHT22;1830;49.000;12.074;2023-12-04T03:45:26;-7.20;99.90
3628;DHT22;1830;49.000;12.074;2023-12-04T03:47:53;-7.10;99.90
3628;DHT22;1830;49.000;12.074;2023-12-04T03:50:21;-7.20;99.90
3628;DHT22;1830;49.000;12.074;2023-12-04T03:52:48;-7.10;99.90
3628;DHT22;1830;49.000;12.074;2023-12-04T03:55:15;-7.10;99.90
3628;DHT22;1830;49.000;12.074;2023-12-04T03:57:44;-7.10;99.90
3628;DHT22;1830;49.000;12.074;2023-12-04T04:00:12;-7.00;99.90
3628;DHT22;1830;49.000;12.074;2023-12-04T04:02:41;-7.00;99.90
3628;DHT22;1830;49.000;12.074;2023-12-04T04:05:08;-6.90;99.90
3628;DHT22;1830;49.000;12.074;2023-12-04T04:07:36;-6.90;99.90
3628;DHT22;1830;49.000;12.074;2023-12-04T04:10:03;-6.90;99.90
3628;DHT22;1830;49.000;12.074;2023-12-04T04:12:30;-6.80;99.90
3628;DHT22;1830;49.000;12.074;2023-12-04T04:14:57;-6.80;99.90
3628;DHT22;1830;49.000;12.074;2023-12-04T04:17:24;-6.80;99.90
3628;DHT22;1830;49.000;12.074;2023-12-04T04:19:51;-6.90;99.90
3628;DHT22;1830;49.000;12.074;2023-12-04T04:22:18;-7.00;99.90
3628;DHT22;1830;49.000;12.074;2023-12-04T04:24:46;-7.00;99.90
3628;DHT22;1830;49.000;12.074;2023-12-04T04:27:13;-7.00;99.90
3628;DHT22;1830;49.000;12.074;2023-12-04T04:29:40;-7.00;99.90
3628;DHT22;1830;49.000;12.074;2023-12-04T04:32:06;-7.10;99.90
3628;DHT22;1830;49.000;12.074;2023-12-04T04:34:33;-7.10;99.90
3628;DHT22;1830;49.000;12.074;2023-12-04T04:37:00;-7.10;99.90
3628;DHT22;1830;49.000;12.074;2023-12-04T04:39:28;-7.20;99.90
3628;DHT22;1830;49.000;12.074;2023-12-04T04:41:56;-7.20;99.90
3628;DHT22;1830;49.000;12.074;2023-12-04T04:44:23;-7.10;99.90
3628;DHT22;1830;49.000;12.074;2023-12-04T04:46:49;-7.10;99.90
3628;DHT22;1830;49.000;12.074;2023-12-04T04:49:16;-7.10;99.90
3628;DHT22;1830;49.000;12.074;2023-12-04T04:51:43;-7.10;99.90
3628;DHT22;1830;49.000;12.074;2023-12-04T04:54:10;-7.10;99.90
3628;DHT22;1830;49.000;12.074;2023-12-04T04:56:36;-7.00;99.90
3628;DHT22;1830;49.000;12.074;2023-12-04T04:59:05;-6.90;99.90
3628;DHT22;1830;49.000;12.074;2023-12-04T05:01:31;-6.80;99.90
3628;DHT22;1830;49.000;12.074;2023-12-04T05:03:58;-7.00;99.90
3628;DHT22;1830;49.000;12.074;2023-12-04T05:06:25;-7.00;99.90
3628;DHT22;1830;49.000;12.074;2023-12-04T05:08:52;-7.00;99.90
3628;DHT22;1830;49.000;12.074;2023-12-04T05:11:19;-7.00;99.90
3628;DHT22;1830;49.000;12.074;2023-12-04T05:13:45;-6.90;99.90
3628;DHT22;1830;49.000;12.074;2023-12-04T05:16:13;-6.80;99.90
3628;DHT22;1830;49.000;12.074;2023-12-04T05:18:41;-6.90;99.90
3628;DHT22;1830;49.000;12.074;2023-12-04T05:21:08;-6.90;99.90
3628;DHT22;1830;49.000;12.074;2023-12-04T05:23:35;-6.90;99.90
3628;DHT22;1830;49.000;12.074;2023-12-04T05:26:03;-6.90;99.90
3628;DHT22;1830;49.000;12.074;2023-12-04T05:28:29;-7.00;99.90
3628;DHT22;1830;49.000;12.074;2023-12-04T05:30:56;-7.00;99.90
3628;DHT22;1830;49.000;12.074;2023-12-04T05:33:24;-7.00;99.90
3628;DHT22;1830;49.000;12.074;2023-12-04T05:35:52;-7.00;99.90
3628;DHT22;1830;49.000;12.074;2023-12-04T05:38:19;-7.00;99.90
3628;DHT22;1830;49.000;12.074;2023-12-04T05:40:46;-7.10;99.90
3628;DHT22;1830;49.000;12.074;2023-12-04T05:43:14;-6.50;99.90
3628;DHT22;1830;49.000;12.074;2023-12-04T05:45:41;-4.40;99.90
3628;DHT22;1830;49.000;12.074;2023-12-04T05:48:07;-3.80;99.90
3628;DHT22;1830;49.000;12.074;2023-12-04T05:50:36;-4.60;99.90
3628;DHT22;1830;49.000;12.074;2023-12-04T05:53:03;-5.00;99.90
3628;DHT22;1830;49.000;12.074;2023-12-04T05:55:29;-5.30;99.90
3628;DHT22;1830;49.000;12.074;2023-12-04T05:57:56;-5.60;99.90
3628;DHT22;1830;49.000;12.074;2023-12-04T06:00:23;-5.90;99.90
3628;DHT22;1830;49.000;12.074;2023-12-04T06:02:49;-6.10;99.90
3628;DHT22;1830;49.000;12.074;2023-12-04T06:05:16;-6.20;99.90
3628;DHT22;1830;49.000;12.074;2023-12-04T06:07:45;-6.30;99.90
3628;DHT22;1830;49.000;12.074;2023-12-04T06:10:11;-6.50;99.90
3628;DHT22;1830;49.000;12.074;2023-12-04T06:12:38;-6.50;99.90
3628;DHT22;1830;49.000;12.074;2023-12-04T06:15:06;-6.50;99.90
3628;DHT22;1830;49.000;12.074;2023-12-04T06:17:32;-6.50;99.90
3628;DHT22;1830;49.000;12.074;2023-12-04T06:19:58;-6.60;99.90
3628;DHT22;1830;49.000;12.074;2023-12-04T06:22:26;-6.60;99.90
3628;DHT22;1830;49.000;12.074;2023-12-04T06:24:55;-6.20;99.90
3628;DHT22;1830;49.000;12.074;2023-12-04T06:27:22;-6.40;99.90
3628;DHT22;1830;49.000;12.074;2023-12-04T06:29:50;-6.50;99.90
3628;DHT22;1830;49.000;12.074;2023-12-04T06:32:17;-6.50;99.90
3628;DHT22;1830;49.000;12.074;2023-12-04T06:34:45;-6.50;99.90
3628;DHT22;1830;49.000;12.074;2023-12-04T06:37:13;-6.50;99.90
3628;DHT22;1830;49.000;12.074;2023-12-04T06:39:41;-6.40;99.90
3628;DHT22;1830;49.000;12.074;2023-12-04T06:42:11;-6.50;99.90
3628;DHT22;1830;49.000;12.074;2023-12-04T06:44:38;-6.50;99.90
3628;DHT22;1830;49.000;12.074;2023-12-04T06:47:05;-6.50;99.90
3628;DHT22;1830;49.000;12.074;2023-12-04T06:49:34;-6.60;99.90
3628;DHT22;1830;49.000;12.074;2023-12-04T06:52:01;-6.50;99.90
3628;DHT22;1830;49.000;12.074;2023-12-04T06:54:28;-6.40;99.90
3628;DHT22;1830;49.000;12.074;2023-12-04T06:56:55;-6.40;99.90
3628;DHT22;1830;49.000;12.074;2023-12-04T06:59:23;-6.40;99.90
3628;DHT22;1830;49.000;12.074;2023-12-04T07:01:50;-6.30;99.90
3628;DHT22;1830;49.000;12.074;2023-12-04T07:04:17;-6.40;99.90
3628;DHT22;1830;49.000;12.074;2023-12-04T07:06:47;-6.40;99.90
3628;DHT22;1830;49.000;12.074;2023-12-04T07:09:14;-6.40;99.90
3628;DHT22;1830;49.000;12.074;2023-12-04T07:11:42;-6.50;99.90
3628;DHT22;1830;49.000;12.074;2023-12-04T07:14:09;-6.50;99.90
3628;DHT22;1830;49.000;12.074;2023-12-04T07:16:41;-6.40;99.90
3628;DHT22;1830;49.000;12.074;2023-12-04T07:19:08;-6.20;99.90
3628;DHT22;1830;49.000;12.074;2023-12-04T07:21:35;-6.30;99.90
3628;DHT22;1830;49.000;12.074;2023-12-04T07:24:03;-6.30;99.90
3628;DHT22;1830;49.000;12.074;2023-12-04T07:26:30;-6.20;99.90
3628;DHT22;1830;49.000;12.074;2023-12-04T07:28:57;-6.10;99.90
3628;DHT22;1830;49.000;12.074;2023-12-04T07:31:24;-6.10;99.90
3628;DHT22;1830;49.000;12.074;2023-12-04T07:33:52;-6.00;99.90
3628;DHT22;1830;49.000;12.074;2023-12-04T07:36:19;-6.00;99.90
3628;DHT22;1830;49.000;12.074;2023-12-04T07:38:46;-6.00;99.90
3628;DHT22;1830;49.000;12.074;2023-12-04T07:41:14;-6.00;99.90
3628;DHT22;1830;49.000;12.074;2023-12-04T07:43:41;-6.00;99.90
3628;DHT22;1830;49.000;12.074;2023-12-04T07:46:09;-6.00;99.90
3628;DHT22;1830;49.000;12.074;2023-12-04T07:48:37;-5.80;99.90
3628;DHT22;1830;49.000;12.074;2023-12-04T07:51:05;-5.90;99.90
3628;DHT22;1830;49.000;12.074;2023-12-04T07:53:33;-5.80;99.90
3628;DHT22;1830;49.000;12.074;2023-12-04T07:56:01;-6.00;99.90
3628;DHT22;1830;49.000;12.074;2023-12-04T07:58:29;-5.80;99.90
3628;DHT22;1830;49.000;12.074;2023-12-04T08:00:56;-5.70;99.90
3628;DHT22;1830;49.000;12.074;2023-12-04T08:03:23;-5.70;99.90
3628;DHT22;1830;49.000;12.074;2023-12-04T08:05:50;-5.70;99.90
3628;DHT22;1830;49.000;12.074;2023-12-04T08:08:18;-5.60;99.90
3628;DHT22;1830;49.000;12.074;2023-12-04T08:10:47;-5.70;99.90
3628;DHT22;1830;49.000;12.074;2023-12-04T08:13:13;-5.70;99.90
3628;DHT22;1830;49.000;12.074;2023-12-04T08:15:40;-5.70;99.90
3628;DHT22;1830;49.000;12.074;2023-12-04T08:18:07;-5.60;99.90
3628;DHT22;1830;49.000;12.074;2023-12-04T08:20:34;-5.70;99.90
3628;DHT22;1830;49.000;12.074;2023-12-04T08:23:01;-5.60;99.90
3628;DHT22;1830;49.000;12.074;2023-12-04T08:25:29;-5.60;99.90
3628;DHT22;1830;49.000;12.074;2023-12-04T08:27:58;-5.70;99.90
3628;DHT22;1830;49.000;12.074;2023-12-04T08:30:25;-5.70;99.90
3628;DHT22;1830;49.000;12.074;2023-12-04T08:32:52;-5.70;99.90
3628;DHT22;1830;49.000;12.074;2023-12-04T08:35:19;-5.60;99.90
3628;DHT22;1830;49.000;12.074;2023-12-04T08:37:47;-5.50;99.90
3628;DHT22;1830;49.000;12.074;2023-12-04T08:40:14;-5.60;99.90
3628;DHT22;1830;49.000;12.074;2023-12-04T08:42:43;-5.50;99.90
3628;DHT22;1830;49.000;12.074;2023-12-04T08:45:10;-5.40;99.90
3628;DHT22;1830;49.000;12.074;2023-12-04T08:47:37;-5.40;99.90
3628;DHT22;1830;49.000;12.074;2023-12-04T08:50:05;-5.30;99.90
3628;DHT22;1830;49.000;12.074;2023-12-04T08:52:32;-5.30;99.90
3628;DHT22;1830;49.000;12.074;2023-12-04T08:54:59;-5.30;99.90
3628;DHT22;1830;49.000;12.074;2023-12-04T08:57:27;-5.30;99.90
3628;DHT22;1830;49.000;12.074;2023-12-04T08:59:54;-5.40;99.90
3628;DHT22;1830;49.000;12.074;2023-12-04T09:02:21;-5.40;99.90
3628;DHT22;1830;49.000;12.074;2023-12-04T09:04:47;-5.40;99.90
3628;DHT22;1830;49.000;12.074;2023-12-04T09:07:14;-5.70;99.90
3628;DHT22;1830;49.000;12.074;2023-12-04T09:09:42;-5.60;99.90
3628;DHT22;1830;49.000;12.074;2023-12-04T09:12:09;-5.50;99.90
3628;DHT22;1830;49.000;12.074;2023-12-04T09:14:36;-5.30;99.90
3628;DHT22;1830;49.000;12.074;2023-12-04T09:17:05;-5.20;99.90
3628;DHT22;1830;49.000;12.074;2023-12-04T09:19:31;-5.10;99.90
3628;DHT22;1830;49.000;12.074;2023-12-04T09:21:58;-5.10;99.90
3628;DHT22;1830;49.000;12.074;2023-12-04T09:24:25;-5.00;99.90
3628;DHT22;1830;49.000;12.074;2023-12-04T09:26:53;-4.90;99.90
3628;DHT22;1830;49.000;12.074;2023-12-04T09:29:20;-4.70;99.90
3628;DHT22;1830;49.000;12.074;2023-12-04T09:31:50;-4.70;99.90
3628;DHT22;1830;49.000;12.074;2023-12-04T09:34:18;-4.60;99.90
3628;DHT22;1830;49.000;12.074;2023-12-04T09:36:45;-4.60;99.90
3628;DHT22;1830;49.000;12.074;2023-12-04T09:39:12;-4.50;99.90
3628;DHT22;1830;49.000;12.074;2023-12-04T09:41:40;-4.50;99.90
3628;DHT22;1830;49.000;12.074;2023-12-04T09:44:08;-4.50;99.90
3628;DHT22;1830;49.000;12.074;2023-12-04T09:46:35;-4.40;99.90
3628;DHT22;1830;49.000;12.074;2023-12-04T09:49:02;-4.30;99.90
3628;DHT22;1830;49.000;12.074;2023-12-04T09:51:32;-4.40;99.90
3628;DHT22;1830;49.000;12.074;2023-12-04T09:54:02;-4.30;99.90
3628;DHT22;1830;49.000;12.074;2023-12-04T09:56:29;-4.20;99.90
3628;DHT22;1830;49.000;12.074;2023-12-04T09:58:58;-4.30;99.90
3628;DHT22;1830;49.000;12.074;2023-12-04T10:01:26;-4.30;99.90
3628;DHT22;1830;49.000;12.074;2023-12-04T10:03:56;-4.30;99.90
3628;DHT22;1830;49.000;12.074;2023-12-04T10:06:26;-4.20;99.90
3628;DHT22;1830;49.000;12.074;2023-12-04T10:08:56;-4.10;99.90
3628;DHT22;1830;49.000;12.074;2023-12-04T10:11:24;-4.00;99.90
3628;DHT22;1830;49.000;12.074;2023-12-04T10:13:52;-4.10;99.90
3628;DHT22;1830;49.000;12.074;2023-12-04T10:16:33;-3.90;99.90
3628;DHT22;1830;49.000;12.074;2023-12-04T10:19:15;-3.90;99.90
3628;DHT22;1830;49.000;12.074;2023-12-04T10:21:43;-3.80;99.90
3628;DHT22;1830;49.000;12.074;2023-12-04T10:24:11;-3.80;99.90
3628;DHT22;1830;49.000;12.074;2023-12-04T10:26:39;-3.80;99.90
3628;DHT22;1830;49.000;12.074;2023-12-04T10:29:15;-3.60;99.90
3628;DHT22;1830;49.000;12.074;2023-12-04T10:31:42;-3.60;99.90
3628;DHT22;1830;49.000;12.074;2023-12-04T10:34:09;-3.60;99.90
3628;DHT22;1830;49.000;12.074;2023-12-04T10:36:36;-3.50;99.90
3628;DHT22;1830;49.000;12.074;2023-12-04T10:39:03;-3.50;99.90
3628;DHT22;1830;49.000;12.074;2023-12-04T10:41:32;-3.70;99.90
3628;DHT22;1830;49.000;12.074;2023-12-04T10:43:59;-3.60;99.90
3628;DHT22;1830;49.000;12.074;2023-12-04T10:46:26;-3.60;99.90
3628;DHT22;1830;49.000;12.074;2023-12-04T10:48:53;-3.60;99.90
3628;DHT22;1830;49.000;12.074;2023-12-04T10:51:21;-3.50;99.90
3628;DHT22;1830;49.000;12.074;2023-12-04T10:53:48;-3.50;99.90
3628;DHT22;1830;49.000;12.074;2023-12-04T10:56:19;-3.50;99.90
3628;DHT22;1830;49.000;12.074;2023-12-04T10:58:50;-3.50;99.90
3628;DHT22;1830;49.000;12.074;2023-12-04T11:01:18;-3.50;99.90
3628;DHT22;1830;49.000;12.074;2023-12-04T11:03:48;-3.60;99.90
3628;DHT22;1830;49.000;12.074;2023-12-04T11:06:16;-3.60;99.90
3628;DHT22;1830;49.000;12.074;2023-12-04T11:08:47;-3.60;99.90
3628;DHT22;1830;49.000;12.074;2023-12-04T11:11:21;-3.60;99.90
3628;DHT22;1830;49.000;12.074;2023-12-04T11:13:54;-3.60;99.90
3628;DHT22;1830;49.000;12.074;2023-12-04T11:16:33;-3.60;99.90
3628;DHT22;1830;49.000;12.074;2023-12-04T11:19:06;-3.60;99.90
3628;DHT22;1830;49.000;12.074;2023-12-04T11:21:39;-3.50;99.90
3628;DHT22;1830;49.000;12.074;2023-12-04T11:24:06;-3.50;99.90
3628;DHT22;1830;49.000;12.074;2023-12-04T11:26:33;-3.40;99.90
3628;DHT22;1830;49.000;12.074;2023-12-04T11:29:03;-3.50;99.90
3628;DHT22;1830;49.000;12.074;2023-12-04T11:31:31;-3.60;99.90
3628;DHT22;1830;49.000;12.074;2023-12-04T11:34:01;-3.60;99.90
3628;DHT22;1830;49.000;12.074;2023-12-04T11:36:29;-3.60;99.90
3628;DHT22;1830;49.000;12.074;2023-12-04T11:38:56;-3.60;99.90
3628;DHT22;1830;49.000;12.074;2023-12-04T11:41:24;-3.50;99.90
3628;DHT22;1830;49.000;12.074;2023-12-04T11:43:51;-3.40;99.90
3628;DHT22;1830;49.000;12.074;2023-12-04T11:46:21;-3.50;99.90
3628;DHT22;1830;49.000;12.074;2023-12-04T11:48:49;-3.50;99.90
3628;DHT22;1830;49.000;12.074;2023-12-04T11:51:45;-3.40;99.90
3628;DHT22;1830;49.000;12.074;2023-12-04T11:54:15;-3.30;99.90
3628;DHT22;1830;49.000;12.074;2023-12-04T11:56:56;-3.50;99.90
3628;DHT22;1830;49.000;12.074;2023-12-04T11:59:24;-3.30;99.90
3628;DHT22;1830;49.000;12.074;2023-12-04T12:01:54;-3.40;99.90
3628;DHT22;1830;49.000;12.074;2023-12-04T12:04:21;-3.40;99.90
3628;DHT22;1830;49.000;12.074;2023-12-04T12:06:48;-3.40;99.90
3628;DHT22;1830;49.000;12.074;2023-12-04T12:09:16;-3.30;99.90
3628;DHT22;1830;49.000;12.074;2023-12-04T12:11:43;-3.20;99.90
3628;DHT22;1830;49.000;12.074;2023-12-04T12:14:10;-3.20;99.90
3628;DHT22;1830;49.000;12.074;2023-12-04T12:16:37;-3.20;99.90
3628;DHT22;1830;49.000;12.074;2023-12-04T12:19:05;-3.10;99.90
3628;DHT22;1830;49.000;12.074;2023-12-04T12:21:32;-3.10;99.90
3628;DHT22;1830;49.000;12.074;2023-12-04T12:24:00;-3.00;99.90
3628;DHT22;1830;49.000;12.074;2023-12-04T12:26:28;-3.10;99.90
3628;DHT22;1830;49.000;12.074;2023-12-04T12:28:55;-3.00;99.90
3628;DHT22;1830;49.000;12.074;2023-12-04T12:31:22;-3.00;99.90
3628;DHT22;1830;49.000;12.074;2023-12-04T12:33:49;-3.00;99.90
3628;DHT22;1830;49.000;12.074;2023-12-04T12:36:17;-2.90;99.90
3628;DHT22;1830;49.000;12.074;2023-12-04T12:38:44;-2.80;99.90
3628;DHT22;1830;49.000;12.074;2023-12-04T12:41:15;-2.80;99.90
3628;DHT22;1830;49.000;12.074;2023-12-04T12:43:42;-2.70;99.90
3628;DHT22;1830;49.000;12.074;2023-12-04T12:46:09;-2.70;99.90
3628;DHT22;1830;49.000;12.074;2023-12-04T12:48:36;-2.70;99.90
3628;DHT22;1830;49.000;12.074;2023-12-04T12:51:03;-2.60;99.90
3628;DHT22;1830;49.000;12.074;2023-12-04T12:53:33;-2.60;99.90
3628;DHT22;1830;49.000;12.074;2023-12-04T12:56:00;-2.60;99.90
3628;DHT22;1830;49.000;12.074;2023-12-04T12:58:28;-2.40;99.90
3628;DHT22;1830;49.000;12.074;2023-12-04T13:00:55;-2.50;99.90
3628;DHT22;1830;49.000;12.074;2023-12-04T13:03:22;-2.60;99.90
3628;DHT22;1830;49.000;12.074;2023-12-04T13:05:49;-2.60;99.90
3628;DHT22;1830;49.000;12.074;2023-12-04T13:08:16;-2.60;99.90
3628;DHT22;1830;49.000;12.074;2023-12-04T13:10:44;-2.60;99.90
3628;DHT22;1830;49.000;12.074;2023-12-04T13:13:11;-2.60;99.90
3628;DHT22;1830;49.000;12.074;2023-12-04T13:15:38;-2.50;99.90
3628;DHT22;1830;49.000;12.074;2023-12-04T13:18:05;-2.60;99.90
3628;DHT22;1830;49.000;12.074;2023-12-04T13:20:32;-2.70;99.90
3628;DHT22;1830;49.000;12.074;2023-12-04T13:23:00;-2.80;99.90
3628;DHT22;1830;49.000;12.074;2023-12-04T13:25:26;-2.80;99.90
3628;DHT22;1830;49.000;12.074;2023-12-04T13:27:54;-2.80;99.90
3628;DHT22;1830;49.000;12.074;2023-12-04T13:30:21;-2.80;99.90
3628;DHT22;1830;49.000;12.074;2023-12-04T13:32:48;-2.80;99.90
3628;DHT22;1830;49.000;12.074;2023-12-04T13:35:16;-2.70;99.90
3628;DHT22;1830;49.000;12.074;2023-12-04T13:37:42;-2.70;99.90
3628;DHT22;1830;49.000;12.074;2023-12-04T13:40:10;-2.70;99.90
3628;DHT22;1830;49.000;12.074;2023-12-04T13:42:41;-2.80;99.90
3628;DHT22;1830;49.000;12.074;2023-12-04T13:45:26;-2.80;99.90
3628;DHT22;1830;49.000;12.074;2023-12-04T13:47:53;-2.80;99.90
3628;DHT22;1830;49.000;12.074;2023-12-04T13:50:20;-2.80;99.90
3628;DHT22;1830;49.000;12.074;2023-12-04T13:52:47;-2.90;99.90
3628;DHT22;1830;49.000;12.074;2023-12-04T13:55:20;-2.90;99.90
3628;DHT22;1830;49.000;12.074;2023-12-04T13:58:02;-2.80;99.90
3628;DHT22;1830;49.000;12.074;2023-12-04T14:00:37;-2.80;99.90
3628;DHT22;1830;49.000;12.074;2023-12-04T14:03:04;-2.70;99.90
3628;DHT22;1830;49.000;12.074;2023-12-04T14:05:32;-2.80;99.90
3628;DHT22;1830;49.000;12.074;2023-12-04T14:07:59;-2.70;99.90
3628;DHT22;1830;49.000;12.074;2023-12-04T14:10:27;-2.60;99.90
3628;DHT22;1830;49.000;12.074;2023-12-04T14:12:54;-2.80;99.90
3628;DHT22;1830;49.000;12.074;2023-12-04T14:15:21;-2.70;99.90
3628;DHT22;1830;49.000;12.074;2023-12-04T14:17:49;-2.80;99.90
3628;DHT22;1830;49.000;12.074;2023-12-04T14:20:16;-2.80;99.90
3628;DHT22;1830;49.000;12.074;2023-12-04T14:22:44;-2.80;99.90
3628;DHT22;1830;49.000;12.074;2023-12-04T14:25:12;-2.90;99.90
3628;DHT22;1830;49.000;12.074;2023-12-04T14:27:39;-2.90;99.90
3628;DHT22;1830;49.000;12.074;2023-12-04T14:30:07;-3.00;99.90
3628;DHT22;1830;49.000;12.074;2023-12-04T14:32:34;-2.90;99.90
3628;DHT22;1830;49.000;12.074;2023-12-04T14:35:03;-3.00;99.90
3628;DHT22;1830;49.000;12.074;2023-12-04T14:37:30;-2.90;99.90
3628;DHT22;1830;49.000;12.074;2023-12-04T14:39:57;-2.90;99.90
3628;DHT22;1830;49.000;12.074;2023-12-04T14:42:24;-2.90;99.90
3628;DHT22;1830;49.000;12.074;2023-12-04T14:44:50;-2.90;99.90
3628;DHT22;1830;49.000;12.074;2023-12-04T14:47:17;-2.90;99.90
3628;DHT22;1830;49.000;12.074;2023-12-04T14:49:44;-3.00;99.90
3628;DHT22;1830;49.000;12.074;2023-12-04T14:52:13;-3.00;99.90
3628;DHT22;1830;49.000;12.074;2023-12-04T14:54:39;-3.10;99.90
3628;DHT22;1830;49.000;12.074;2023-12-04T14:57:17;-3.10;99.90
3628;DHT22;1830;49.000;12.074;2023-12-04T15:00:15;-3.10;99.90
3628;DHT22;1830;49.000;12.074;2023-12-04T15:03:33;-3.30;99.90
3628;DHT22;1830;49.000;12.074;2023-12-04T15:06:17;-3.30;99.90
3628;DHT22;1830;49.000;12.074;2023-12-04T15:09:08;-3.10;99.90
3628;DHT22;1830;49.000;12.074;2023-12-04T15:12:11;-3.00;99.90
3628;DHT22;1830;49.000;12.074;2023-12-04T15:14:45;-3.00;99.90
3628;DHT22;1830;49.000;12.074;2023-12-04T15:17:17;-3.00;99.90
3628;DHT22;1830;49.000;12.074;2023-12-04T15:19:54;-3.00;99.90
3628;DHT22;1830;49.000;12.074;2023-12-04T15:22:43;-2.90;99.90
3628;DHT22;1830;49.000;12.074;2023-12-04T15:25:11;-2.90;99.90
3628;DHT22;1830;49.000;12.074;2023-12-04T15:27:40;-3.00;99.90
3628;DHT22;1830;49.000;12.074;2023-12-04T15:30:07;-3.00;99.90
3628;DHT22;1830;49.000;12.074;2023-12-04T15:32:34;-2.90;99.90
3628;DHT22;1830;49.000;12.074;2023-12-04T15:35:00;-2.90;99.90
3628;DHT22;1830;49.000;12.074;2023-12-04T15:37:27;-3.00;99.90
3628;DHT22;1830;49.000;12.074;2023-12-04T15:39:53;-3.00;99.90
3628;DHT22;1830;49.000;12.074;2023-12-04T15:42:21;-2.90;99.90
3628;DHT22;1830;49.000;12.074;2023-12-04T15:44:47;-3.00;99.90
3628;DHT22;1830;49.000;12.074;2023-12-04T15:47:14;-3.00;99.90
3628;DHT22;1830;49.000;12.074;2023-12-04T15:49:39;-3.00;99.90
3628;DHT22;1830;49.000;12.074;2023-12-04T15:52:06;-3.00;99.90